Aérodrome :







RETROUVEZ-NOUS SUR...

 
LOGIN :

S'inscrire | Disclaimer

   EN    FR    IT 

 









Légende :    VFR   VFR Marginal   IFR   IFR Intensif   IFR Très Intensif
Visi : 
Plafond : 
>= 8 km
>= 3000ft
5 à 8 km
1000 à 3000 ft
1500m à 5 km
500 à 1000 ft
800 à 1500m
200 à 500 ft
< 800m
< 200 ft
Symboles :   Orages  Brouillard  Fortes neiges  Fortes précipitations  Vent > 20 kt






- Altitude de l'aérodrome : 84 ft
- Code IATA : YJT


CYJT - Stephenville

DERNIER METAR :
  • 221300Z 08003KT 040V100 15SM FEW021 FEW150 FEW220 03/M02 A2974 RMK SC1AC1CI1 AC TR SLP073

METARs EXPIRÉS :
  • 221200Z 02007KT 15SM FEW021 FEW031 FEW120 00/M02 A2975 RMK SC2SC1AC1 SC TR AC TR SLP076
  • 221100Z 00000KT 15SM SCT026 M01/M02 A2975 RMK SC4 SLP077

TAF TAF CYJT
Valide du 22 à 12h jusqu'au 23 à 12h UTC


221140Z 2212/2312 VRB03KT P6SM SCT020 SCT050
TEMPO 2212/2218 BKN020 BKN050
FM221800 30005KT P6SM FEW005 SCT025
FM230000 08008KT P6SM FEW015 BKN150
FM230800 10012G22KT 5SM -RA BR OVC020
FM231100 08020G30KT 4SM -RA BR OVC015 RMK NXT FCST BY 221800Z



MET'MAP, la Météo Aéronautique d'un coup d'oeil ! - Copyright ORBIFLY Décembre 2007 - Disclaimer

ORBIFLY MET'MAP TEAM :

Programmation & Développement : Alexandra Zaïnal
Conception & Développement : Baudouin d'Aumeries
Co-Programmation & Développement : Marc-Olivier Méhu
Soutien technique & logistique : Manuel Goepfert

Contact : metmap@orbifly.com




SOURCES & CREDITS :

   NOAA